Impacts TAF Board INFO
FOR SITUATIONAL AWARENESS. NOT TO BE USED FOR FLIGHT PLANNING PURPOSES.
IDs:

KORD - Chicago/O'Hare Intl, IL, US

Issued at 1136 UTC 19 Jun 2018
Updated at 1236 UTC 19 Jun 2018
Potential Impact None Slight Moderate High
Time<<20/01Z 20/02Z 20/03Z 20/04Z 20/05Z 20/06Z 20/07Z 20/08Z 20/09Z 20/10Z 20/11Z 20/12Z 20/13Z>>
Type PRVL PRVL PRVL PRVL PRVL PRVL PRVL PRVL PRVL PRVL PRVL PRVL PRVL
VIS >6 >6 >6 >6 >6 5 5 5 5 5 5 5 5
CIG 20 20 20 20 20 15 15 15 15 15 15 15 15
Cover BKN BKN BKN BKN BKN BKN BKN BKN BKN BKN BKN BKN BKN
FltCat MVFR MVFR MVFR MVFR MVFR MVFR MVFR MVFR MVFR MVFR MVFR MVFR MVFR
WX -- -- -- -- -- BR BR BR BR BR BR BR BR
WDir 30 30 30 30 30 30 30 30 30 30 30 30 30
WSpd 9 9 9 9 9 6 6 6 6 6 6 6 6
WGst -- -- -- -- -- -- -- -- -- -- -- -- --

Raw TAF
KORD 191136Z 1912/2018 07008KT 5SM BR VCSH BKN005 OVC012
  FM191600 09007KT P6SM SCT009 BKN015
  TEMPO 1916/1919 BKN009
  FM191900 03010KT 6SM -SHRA VCTS SCT015 BKN035CB
  TEMPO 1920/1924 2SM TSRA BKN015 OVC035CB
  FM200000 03009KT P6SM BKN020
  FM200600 03006KT 5SM BR SCT007 BKN015
  FM201400 05008KT P6SM SCT020 BKN035


METAR Board
Radar Display
Forecast Discussion

FOR SITUATIONAL AWARENESS. NOT TO BE USED FOR FLIGHT PLANNING PURPOSES.